createdAt,value
2022-10-31T00:03:57.217Z,4.45
2022-10-31T00:07:58.904Z,6.38
2022-10-31T00:12:00.637Z,4.15
2022-10-31T00:16:02.298Z,6.15
2022-10-31T00:20:04.308Z,5.97
2022-10-31T00:24:06.513Z,2.85
2022-10-31T00:28:11.422Z,4.38
2022-10-31T00:32:13.160Z,5.63
2022-10-31T00:36:18.590Z,6.13
2022-10-31T00:40:20.402Z,4.15
2022-10-31T00:44:22.132Z,6.53
2022-10-31T00:48:23.845Z,2.92
2022-10-31T00:52:25.731Z,2.13
2022-10-31T00:56:27.405Z,5.18
2022-10-31T01:00:29.203Z,9.77
2022-10-31T01:04:31.394Z,5.07
2022-10-31T01:08:33.740Z,6.65
2022-10-31T01:12:43.313Z,4.55
2022-10-31T01:16:45.071Z,3.90
2022-10-31T01:20:46.819Z,3.40
2022-10-31T01:24:52.230Z,5.97
2022-10-31T01:28:57.595Z,3.63
2022-10-31T01:32:59.641Z,3.10
2022-10-31T01:37:01.742Z,4.90
2022-10-31T01:41:03.578Z,5.10
2022-10-31T01:45:06.398Z,4.38
2022-10-31T01:49:19.597Z,3.08
2022-10-31T01:53:25.884Z,3.42
2022-10-31T01:57:30.358Z,4.50
2022-10-31T02:01:32.267Z,4.60
2022-10-31T02:05:34.950Z,3.95
2022-10-31T02:09:38.580Z,4.30
2022-10-31T02:13:40.364Z,5.22
2022-10-31T02:17:43.453Z,5.13
2022-10-31T02:21:57.507Z,4.97
2022-10-31T02:26:20.466Z,7.35
2022-10-31T02:30:25.136Z,5.72
2022-10-31T02:34:44.684Z,2.67
2022-10-31T02:39:14.641Z,2.97
2022-10-31T02:43:27.008Z,4.15
2022-10-31T02:47:33.268Z,5.78
2022-10-31T02:51:35.796Z,3.67
2022-10-31T02:55:38.821Z,3.40
2022-10-31T02:59:48.788Z,5.40
2022-10-31T03:04:08.915Z,5.93
2022-10-31T03:08:24.701Z,8.35
2022-10-31T03:12:48.647Z,6.43
2022-10-31T03:16:54.189Z,5.80
2022-10-31T03:21:11.057Z,8.88
2022-10-31T03:25:14.879Z,7.25
2022-10-31T03:29:19.865Z,7.50
2022-10-31T03:33:28.341Z,11.45
2022-10-31T03:37:35.039Z,12.63
2022-10-31T03:41:42.649Z,11.10
2022-10-31T03:45:47.743Z,9.32
2022-10-31T03:49:49.989Z,6.32
2022-10-31T03:54:03.167Z,9.45
2022-10-31T03:58:09.528Z,7.85
2022-10-31T04:02:17.224Z,10.13
2022-10-31T04:10:25.449Z,10.57
2022-10-31T04:14:35.524Z,9.73
2022-10-31T04:18:37.325Z,12.10
2022-10-31T04:22:39.096Z,11.25
2022-10-31T04:26:40.820Z,14.10
2022-10-31T04:30:42.596Z,11.45
2022-10-31T04:34:44.512Z,10.75
2022-10-31T04:38:46.631Z,14.00
2022-10-31T04:43:02.270Z,12.43
2022-10-31T04:47:04.659Z,14.77
2022-10-31T04:51:06.445Z,14.68
2022-10-31T04:55:09.168Z,11.40
2022-10-31T04:59:29.352Z,12.98
2022-10-31T05:03:31.044Z,14.30
2022-10-31T05:07:32.726Z,11.25
2022-10-31T05:11:34.795Z,11.70
2022-10-31T05:15:50.793Z,14.07
2022-10-31T05:20:31.172Z,10.55
2022-10-31T05:24:51.249Z,10.07
2022-10-31T05:28:53.196Z,14.07
2022-10-31T05:32:55.779Z,14.93
2022-10-31T05:37:15.750Z,13.25
2022-10-31T05:41:17.442Z,11.18
2022-10-31T05:45:23.394Z,16.15
2022-10-31T05:49:32.749Z,10.63
2022-10-31T05:53:53.056Z,10.50
2022-10-31T05:57:56.253Z,11.85
2022-10-31T06:01:58.014Z,15.02
2022-10-31T06:06:22.513Z,13.18
2022-10-31T06:10:25.461Z,11.00
2022-10-31T06:14:29.846Z,16.88
2022-10-31T06:18:33.207Z,14.63
2022-10-31T06:22:35.896Z,16.70
2022-10-31T06:26:37.589Z,19.13
2022-10-31T06:30:39.410Z,16.02
2022-10-31T06:34:42.318Z,21.05
2022-10-31T06:38:44.650Z,20.10
2022-10-31T06:42:47.603Z,23.58
2022-10-31T06:46:49.836Z,24.35
2022-10-31T06:51:10.367Z,17.20
2022-10-31T06:55:12.737Z,21.58
2022-10-31T06:59:15.419Z,20.38
2022-10-31T07:03:43.458Z,23.05
2022-10-31T07:07:45.176Z,18.25
2022-10-31T07:11:48.072Z,24.15
2022-10-31T07:15:50.417Z,43.28
2022-10-31T07:19:52.501Z,17.55
2022-10-31T07:23:54.324Z,16.38
2022-10-31T07:28:14.803Z,21.85
2022-10-31T07:32:20.686Z,28.35
2022-10-31T07:36:28.402Z,24.90
2022-10-31T07:40:34.830Z,26.05
2022-10-31T07:44:37.977Z,21.60
2022-10-31T07:48:58.054Z,20.05
2022-10-31T07:53:18.292Z,19.55
2022-10-31T07:57:34.964Z,23.77
2022-10-31T08:01:36.912Z,29.33
2022-10-31T08:06:07.738Z,25.42
2022-10-31T08:10:33.499Z,27.85
2022-10-31T08:14:35.305Z,18.45
2022-10-31T08:18:38.602Z,34.88
2022-10-31T08:22:44.045Z,30.00
2022-10-31T08:26:46.570Z,22.13
2022-10-31T08:30:48.516Z,26.75
2022-10-31T08:35:25.469Z,26.83
2022-10-31T08:39:59.169Z,29.73
2022-10-31T08:44:00.941Z,28.42
2022-10-31T08:48:05.785Z,33.90
2022-10-31T08:52:12.030Z,31.77
2022-10-31T08:56:16.569Z,28.00
2022-10-31T09:00:19.166Z,25.48
2022-10-31T09:04:31.722Z,23.90
2022-10-31T09:08:34.121Z,27.58
2022-10-31T09:12:37.104Z,30.20
2022-10-31T09:17:04.854Z,27.02
2022-10-31T09:21:24.012Z,21.05
2022-10-31T09:25:26.310Z,26.63
2022-10-31T09:29:48.007Z,27.02
2022-10-31T09:33:49.869Z,27.05
2022-10-31T09:38:17.556Z,21.15
2022-10-31T09:42:42.794Z,19.50
2022-10-31T09:47:00.115Z,23.40
2022-10-31T09:51:11.940Z,23.95
2022-10-31T09:55:28.945Z,22.23
2022-10-31T09:59:41.003Z,25.30
2022-10-31T10:03:50.423Z,26.92
2022-10-31T10:08:21.351Z,20.45
2022-10-31T10:13:28.088Z,23.58
2022-10-31T10:17:32.913Z,26.10
2022-10-31T10:21:34.497Z,28.60
2022-10-31T10:25:40.850Z,25.23
2022-10-31T10:29:51.801Z,27.88
2022-10-31T10:34:17.745Z,24.80
2022-10-31T10:38:24.896Z,23.35
2022-10-31T10:42:47.347Z,23.67
2022-10-31T10:47:18.884Z,26.55
2022-10-31T10:52:13.168Z,31.90
2022-10-31T10:56:30.052Z,21.98
2022-10-31T11:00:37.338Z,33.92
2022-10-31T11:04:41.141Z,28.97
2022-10-31T11:08:42.809Z,28.75
2022-10-31T11:12:47.173Z,28.13
2022-10-31T11:16:54.830Z,32.28
2022-10-31T11:20:59.175Z,27.27
2022-10-31T11:25:00.943Z,22.98
2022-10-31T11:29:05.375Z,23.70
2022-10-31T11:33:07.068Z,25.77
2022-10-31T11:37:18.063Z,19.55
2022-10-31T11:41:27.679Z,20.52
2022-10-31T11:45:34.705Z,25.50
2022-10-31T11:49:40.015Z,19.15
2022-10-31T11:53:56.780Z,23.83
2022-10-31T11:58:02.601Z,24.58
2022-10-31T12:02:19.650Z,22.92
2022-10-31T12:06:34.441Z,26.65
2022-10-31T12:10:56.396Z,21.65
2022-10-31T12:15:27.620Z,20.88
2022-10-31T12:19:36.618Z,22.13
2022-10-31T12:23:50.151Z,27.40
2022-10-31T12:28:10.074Z,25.20
2022-10-31T12:32:41.599Z,30.95
2022-10-31T12:37:02.088Z,29.80
2022-10-31T12:41:25.646Z,33.20
2022-10-31T12:45:55.791Z,27.15
2022-10-31T12:50:42.791Z,33.13
2022-10-31T12:54:48.083Z,30.45
2022-10-31T12:59:00.617Z,33.45
2022-10-31T13:03:10.628Z,33.08
2022-10-31T13:07:19.037Z,30.13
2022-10-31T13:11:28.709Z,33.00
2022-10-31T13:15:36.218Z,31.98
2022-10-31T13:19:45.946Z,35.63
2022-10-31T13:23:52.464Z,45.97
2022-10-31T13:27:56.434Z,31.95
2022-10-31T13:31:58.303Z,47.83
2022-10-31T13:36:12.118Z,40.35
2022-10-31T13:40:23.824Z,41.28
2022-10-31T13:44:27.844Z,43.75
2022-10-31T13:48:29.451Z,53.13
2022-10-31T13:52:31.138Z,42.63
2022-10-31T13:56:35.315Z,47.97
2022-10-31T14:00:37.457Z,49.78
2022-10-31T14:04:47.021Z,53.38
2022-10-31T14:08:52.351Z,42.92
2022-10-31T14:13:04.193Z,44.97
2022-10-31T14:17:06.925Z,41.05
2022-10-31T14:21:30.549Z,38.42
2022-10-31T14:25:36.856Z,40.88
2022-10-31T14:29:38.531Z,40.90
2022-10-31T14:33:43.584Z,45.25
2022-10-31T14:38:06.427Z,47.85
2022-10-31T14:42:14.083Z,38.05
2022-10-31T14:46:51.952Z,38.75
2022-10-31T14:50:56.977Z,43.35
2022-10-31T14:55:01.619Z,35.67
2022-10-31T14:59:10.070Z,41.20
2022-10-31T15:03:23.223Z,40.17
2022-10-31T15:07:27.232Z,39.40
2022-10-31T15:11:28.943Z,43.72
2022-10-31T15:15:31.617Z,43.75
2022-10-31T15:19:35.293Z,46.75
2022-10-31T15:23:37.049Z,36.50
2022-10-31T15:27:41.581Z,37.95
2022-10-31T15:31:58.760Z,38.72
2022-10-31T15:36:02.353Z,50.58
2022-10-31T15:40:15.312Z,51.38
2022-10-31T15:44:20.705Z,51.92
2022-10-31T15:48:26.136Z,45.25
2022-10-31T15:52:47.096Z,38.33
2022-10-31T15:56:50.171Z,41.20
2022-10-31T16:01:25.577Z,41.05
2022-10-31T16:05:53.717Z,37.63
2022-10-31T16:10:03.890Z,45.53
2022-10-31T16:14:25.194Z,42.78
2022-10-31T16:18:30.376Z,36.85
2022-10-31T16:22:42.115Z,41.90
2022-10-31T16:26:49.212Z,37.00
2022-10-31T16:30:56.001Z,37.45
2022-10-31T16:35:10.323Z,41.13
2022-10-31T16:39:12.292Z,33.78
2022-10-31T16:43:15.883Z,34.85
2022-10-31T16:47:20.328Z,35.50
2022-10-31T16:51:23.854Z,44.85
2022-10-31T16:55:26.522Z,38.92
2022-10-31T16:59:28.683Z,30.88
2022-10-31T17:03:31.267Z,32.70
2022-10-31T17:07:32.953Z,46.00
2022-10-31T17:11:35.363Z,35.50
2022-10-31T17:15:48.473Z,34.40
2022-10-31T17:19:50.344Z,39.33
2022-10-31T17:23:52.328Z,35.75
2022-10-31T17:27:54.284Z,37.78
2022-10-31T17:31:56.088Z,37.50
2022-10-31T17:35:57.779Z,37.45
2022-10-31T17:39:59.491Z,44.42
2022-10-31T17:44:01.374Z,37.95
2022-10-31T17:48:03.091Z,41.53
2022-10-31T17:52:05.112Z,40.95
2022-10-31T17:56:08.821Z,37.55
2022-10-31T18:00:14.376Z,37.38
2022-10-31T18:04:16.213Z,40.40
2022-10-31T18:08:17.877Z,33.00
2022-10-31T18:12:19.700Z,43.72
2022-10-31T18:16:21.499Z,40.38
2022-10-31T18:20:23.485Z,39.72
2022-10-31T18:24:25.268Z,39.53
2022-10-31T18:28:27.204Z,36.70
2022-10-31T18:32:28.815Z,33.65
2022-10-31T18:36:30.521Z,37.85
2022-10-31T18:40:33.619Z,38.65
2022-10-31T18:44:35.379Z,31.95
2022-10-31T18:48:37.262Z,38.75
2022-10-31T18:52:39.063Z,37.03
2022-10-31T18:56:40.773Z,40.45
2022-10-31T19:00:42.680Z,37.92
2022-10-31T19:04:44.569Z,30.30
2022-10-31T19:08:46.309Z,28.55
2022-10-31T19:12:48.001Z,34.42
2022-10-31T19:16:52.421Z,33.42
2022-10-31T19:20:54.408Z,25.52
2022-10-31T19:24:56.187Z,24.27
2022-10-31T19:28:57.909Z,25.88
2022-10-31T19:32:59.657Z,21.75
2022-10-31T19:37:01.328Z,21.65
2022-10-31T19:41:06.442Z,25.73
2022-10-31T19:45:08.459Z,28.40
2022-10-31T19:49:13.732Z,25.10
2022-10-31T19:53:15.382Z,23.20
2022-10-31T19:57:17.280Z,22.80
2022-10-31T20:01:23.333Z,16.25
2022-10-31T20:05:25.174Z,24.65
2022-10-31T20:09:26.874Z,22.60
2022-10-31T20:13:30.792Z,19.20
2022-10-31T20:17:32.484Z,15.57
2022-10-31T20:21:38.930Z,17.15
2022-10-31T20:25:50.232Z,18.45
2022-10-31T20:29:51.980Z,19.73
2022-10-31T20:33:54.389Z,20.67
2022-10-31T20:37:56.580Z,23.67
2022-10-31T20:41:58.267Z,23.42
2022-10-31T20:46:06.632Z,16.83
2022-10-31T20:50:08.806Z,19.75
2022-10-31T20:54:13.009Z,14.80
2022-10-31T20:58:14.764Z,15.80
2022-10-31T21:02:16.524Z,17.52
2022-10-31T21:06:19.710Z,14.77
2022-10-31T21:10:21.369Z,17.48
2022-10-31T21:14:23.041Z,22.98
2022-10-31T21:18:24.683Z,14.25
2022-10-31T21:22:26.443Z,16.42
2022-10-31T21:26:30.569Z,18.38
2022-10-31T21:30:32.322Z,14.82
2022-10-31T21:34:33.999Z,16.27
2022-10-31T21:38:36.325Z,17.38
2022-10-31T21:42:38.053Z,14.35
2022-10-31T21:46:40.111Z,11.48
2022-10-31T21:50:41.806Z,10.75
2022-10-31T21:54:43.476Z,11.68
2022-10-31T21:58:45.302Z,16.77
2022-10-31T22:02:46.952Z,16.50
2022-10-31T22:06:48.747Z,12.80
2022-10-31T22:10:50.433Z,16.17
2022-10-31T22:14:52.134Z,13.10
2022-10-31T22:18:56.504Z,11.75
2022-10-31T22:22:58.207Z,11.20
2022-10-31T22:27:00.069Z,10.43
2022-10-31T22:31:06.455Z,14.50
2022-10-31T22:35:08.529Z,15.98
2022-10-31T22:39:13.231Z,13.70
2022-10-31T22:43:14.901Z,18.85
2022-10-31T22:47:16.574Z,11.15
2022-10-31T22:51:24.546Z,19.08
2022-10-31T22:55:26.282Z,22.70
2022-10-31T22:59:27.971Z,10.85
2022-10-31T23:03:29.611Z,10.82
2022-10-31T23:07:32.997Z,20.33
2022-10-31T23:11:38.509Z,15.75
2022-10-31T23:15:40.172Z,14.05
2022-10-31T23:19:41.881Z,15.13
2022-10-31T23:23:43.595Z,11.40
2022-10-31T23:27:45.309Z,9.38
2022-10-31T23:31:48.100Z,11.65
2022-10-31T23:35:49.913Z,13.50
2022-10-31T23:39:51.668Z,14.50
2022-10-31T23:43:53.344Z,12.25
2022-10-31T23:47:55.039Z,10.20
2022-10-31T23:51:56.723Z,19.83
2022-10-31T23:55:58.459Z,12.35
